Audrey — PD9331 — position and weather

sailwx.info

Track history (hours):
 
Tides and Currents Weather Stations Pressure Air Temp Water Temp Dewpoint Dewpoint Depression Visibility Wind Speed Wind Dir Waves Ship Positions

Audrey

Last reported at 2015-Aug-02 21:33 UTC. Time now 2015-Aug-02 22:32 UTC.
Position N 51°49' E 004°39'.

Length 85 m; draft 2.4 m.

Type: Other ship. MMSI: 244660106.

Date/timePositionNaut miles runAvg speedWind from/ knotsBaromVisibWave heightAir tempDewpointWater temp
2015-Aug-02 21:33N 51°49' E 004°39'0 0.0
2015-Aug-02 20:33N 51°49' E 004°39'0 0.0
2015-Aug-02 19:34N 51°49' E 004°39'0 0.0
2015-Aug-02 17:26N 51°49' E 004°39'0 0.0
2015-Aug-02 13:30N 51°49' E 004°39'0 0.0
2015-Aug-02 12:33N 51°49' E 004°39'0 0.0
2015-Aug-02 11:29N 51°49' E 004°39'0 0.0
2015-Aug-02 10:32N 51°49' E 004°39'0 0.0
2015-Aug-02 09:32N 51°49' E 004°39'0 0.0
2015-Aug-02 07:33N 51°49' E 004°39'0 0.0
2015-Aug-02 06:33N 51°49' E 004°39'0 0.0
2015-Aug-02 05:32N 51°49' E 004°39'0 0.0
2015-Aug-02 04:32N 51°49' E 004°39'0 0.0
2015-Aug-02 03:33N 51°49' E 004°39'0 0.0
2015-Aug-02 02:11N 51°49' E 004°39'0 0.0
2015-Aug-02 01:32N 51°49' E 004°39'0 0.0
2015-Aug-02 00:31N 51°49' E 004°39'0 0.0
2015-Aug-01 23:22N 51°49' E 004°39'0 0.0
2015-Aug-01 21:25N 51°49' E 004°39'0 0.0
2015-Aug-01 19:29N 51°49' E 004°39'0 0.0
2015-Aug-01 18:34N 51°49' E 004°39'0 0.0
2015-Aug-01 17:34N 51°49' E 004°39'0 0.0
2015-Aug-01 16:33N 51°49' E 004°39'0 0.0
2015-Aug-01 15:33N 51°49' E 004°39'0 0.0
2015-Aug-01 14:34N 51°49' E 004°39'0 0.0
2015-Aug-01 13:34N 51°49' E 004°39'0 0.0
2015-Aug-01 12:34N 51°49' E 004°39'0 0.0
2015-Aug-01 11:34N 51°49' E 004°39'0 0.0
2015-Aug-01 10:34N 51°49' E 004°39'0 0.0
2015-Aug-01 09:34N 51°49' E 004°39'0 0.0
2015-Aug-01 08:34N 51°49' E 004°39'0 0.0
2015-Aug-01 07:34N 51°49' E 004°39'0 0.0
2015-Aug-01 06:33N 51°49' E 004°39'0 0.0
2015-Aug-01 05:33N 51°49' E 004°39'0 0.0
2015-Aug-01 04:34N 51°49' E 004°39'0 0.0
2015-Aug-01 03:34N 51°49' E 004°39'0 0.0
2015-Aug-01 02:33N 51°49' E 004°39'0 0.0
2015-Aug-01 01:34N 51°49' E 004°39'0 0.0
2015-Aug-01 00:34N 51°49' E 004°39'0 0.0
2015-Jul-31 23:34N 51°49' E 004°39'0 0.0
2015-Jul-31 22:34N 51°49' E 004°39'0 0.0
2015-Jul-31 21:33N 51°49' E 004°39'0 0.0
2015-Jul-31 20:34N 51°49' E 004°39'0 0.0
2015-Jul-31 19:34N 51°49' E 004°39'0 0.0
2015-Jul-31 18:34N 51°49' E 004°39'0 0.0
2015-Jul-31 17:34N 51°49' E 004°39'0 0.0
2015-Jul-31 16:34N 51°49' E 004°39'0 0.0
2015-Jul-31 15:34N 51°49' E 004°39'0 0.0
2015-Jul-31 14:33N 51°49' E 004°39'0 0.0
2015-Jul-31 13:33N 51°49' E 004°39'0 0.0
2015-Jul-31 12:34N 51°49' E 004°39'0 0.0
2015-Jul-31 11:34N 51°49' E 004°39'0 0.0
2015-Jul-31 10:33N 51°49' E 004°39'0 0.0
2015-Jul-31 09:34N 51°49' E 004°39'0 0.1
2015-Jul-31 08:34N 51°49' E 004°39'5 4.8
2015-Jul-31 07:33N 51°53' E 004°37'9 8.7
2015-Jul-31 06:32N 51°56' E 004°51'7 7.5
2015-Jul-31 05:34N 51°58' E 005°02'4 4.2
2015-Jul-31 04:33N 52°01' E 005°07'0 0.0
2015-Jul-31 03:33N 52°01' E 005°07'0 0.0
2015-Jul-31 02:34N 52°01' E 005°07'0 0.0
2015-Jul-31 01:33N 52°01' E 005°07'0 0.0
2015-Jul-31 00:33N 52°01' E 005°07'0 0.0
2015-Jul-30 23:33N 52°01' E 005°07'0 0.0
2015-Jul-30 22:34N 52°01' E 005°07'0 0.0
2015-Jul-30 21:33N 52°01' E 005°07'0 0.0
2015-Jul-30 20:33N 52°01' E 005°07'1 1.4
2015-Jul-30 19:34N 52°03' E 005°06'9 8.6
2015-Jul-30 18:34N 52°10' E 004°60'9 9.2
2015-Jul-30 17:33N 52°19' E 005°01'4 3.9
2015-Jul-30 16:34N 52°23' E 004°58'8 8.2
2015-Jul-30 15:33N 52°26' E 005°10'9 9.2
2015-Jul-30 14:34N 52°30' E 005°24'7 6.9
2015-Jul-30 13:34N 52°36' E 005°30'9 9.4
2015-Jul-30 12:33N 52°45' E 005°34'7 7.2
2015-Jul-30 11:33N 52°51' E 005°41'1 1.0
2015-Jul-30 10:06N 52°52' E 005°41'11 2.4
2015-Jul-30 05:32N 53°03' E 005°47'0 0.0
2015-Jul-30 02:22N 53°03' E 005°47'0 0.0
2015-Jul-30 01:13N 53°03' E 005°47'0 0.0
2015-Jul-29 23:28N 53°03' E 005°47'9 1.1
2015-Jul-29 15:04N 53°12' E 005°49'0 0.1
2015-Jul-29 14:30N 53°12' E 005°49'0 0.0
2015-Jul-29 13:06N 53°12' E 005°49'0 0.0
2015-Jul-29 12:33N 53°12' E 005°49'0 0.0
2015-Jul-29 11:31N 53°12' E 005°49'0 0.0
2015-Jul-29 10:27N 53°12' E 005°49'0 0.0
2015-Jul-29 09:33N 53°12' E 005°49'0 0.0
2015-Jul-29 08:32N 53°12' E 005°49'0 0.0
2015-Jul-29 07:33N 53°12' E 005°49'0 0.0
2015-Jul-29 06:33N 53°12' E 005°49'0 0.0
2015-Jul-29 05:33N 53°12' E 005°49'0 0.0
2015-Jul-29 04:32N 53°12' E 005°49'0 0.0
2015-Jul-29 03:32N 53°12' E 005°49'0 0.0
2015-Jul-29 02:33N 53°12' E 005°49'0 0.0
2015-Jul-29 01:33N 53°12' E 005°49'0 0.0
2015-Jul-29 00:32N 53°12' E 005°49'0 0.0
2015-Jul-28 23:33N 53°12' E 005°49'0 0.0
2015-Jul-28 22:33N 53°12' E 005°49'0 0.0
2015-Jul-28 21:33N 53°12' E 005°49'0 0.0
2015-Jul-28 20:31N 53°12' E 005°49'0 0.0
2015-Jul-28 19:32N 53°12' E 005°49'0 0.0
2015-Jul-28 18:33N 53°12' E 005°49'0 0.0
2015-Jul-28 17:33N 53°12' E 005°49'0 0.0
2015-Jul-28 16:32N 53°12' E 005°49'0 0.0
2015-Jul-28 15:31N 53°12' E 005°49'0 0.0
2015-Jul-28 14:34N 53°12' E 005°49'0 0.0
2015-Jul-28 13:32N 53°12' E 005°49'0 0.0
2015-Jul-28 12:34N 53°12' E 005°49'0 0.0
2015-Jul-28 11:33N 53°12' E 005°49'0 0.0
2015-Jul-28 10:33N 53°12' E 005°49'0 0.0
2015-Jul-28 09:34N 53°12' E 005°49'0 0.0
2015-Jul-28 08:33N 53°12' E 005°49'0 0.0
2015-Jul-28 07:33N 53°12' E 005°49'0 0.0
2015-Jul-28 06:33N 53°12' E 005°49'0 0.0
2015-Jul-28 05:31N 53°12' E 005°49'0 0.0
2015-Jul-28 04:33N 53°12' E 005°49'0 0.0
2015-Jul-28 03:33N 53°12' E 005°49'0 0.0
2015-Jul-28 02:34N 53°12' E 005°49'0 0.0
2015-Jul-28 01:33N 53°12' E 005°49'0 0.0
2015-Jul-28 00:34N 53°12' E 005°49'0 0.0
2015-Jul-27 23:33N 53°12' E 005°49'0 0.0
2015-Jul-27 22:33N 53°12' E 005°49'0 0.0
2015-Jul-27 21:32N 53°12' E 005°49'0 0.0
2015-Jul-27 20:33N 53°12' E 005°49'0 0.0
2015-Jul-27 19:33N 53°12' E 005°49'0 0.0
2015-Jul-27 18:33N 53°12' E 005°49'0 0.0
2015-Jul-27 17:34N 53°12' E 005°49'0 0.0
2015-Jul-27 16:33N 53°12' E 005°49'0 0.0
2015-Jul-27 15:33N 53°12' E 005°49'0 0.0
2015-Jul-27 14:33N 53°12' E 005°49'0 0.0
2015-Jul-27 13:33N 53°12' E 005°49'0 0.0
2015-Jul-27 12:33N 53°12' E 005°49'0 0.0
2015-Jul-27 11:33N 53°12' E 005°49'0 0.0
2015-Jul-27 10:33N 53°12' E 005°49'0 0.0
2015-Jul-27 09:30N 53°12' E 005°49'0 0.0
2015-Jul-27 08:32N 53°12' E 005°49'0 0.0
2015-Jul-27 07:32N 53°12' E 005°49'0 0.0
2015-Jul-27 06:33N 53°12' E 005°49'0 0.0
2015-Jul-27 05:33N 53°12' E 005°49'0 0.0
2015-Jul-27 04:32N 53°12' E 005°49'0 0.0
2015-Jul-27 03:32N 53°12' E 005°49'0 0.0
2015-Jul-27 02:33N 53°12' E 005°49'0 0.0
2015-Jul-27 01:34N 53°12' E 005°49'0 0.0
2015-Jul-27 00:33N 53°12' E 005°49'0 0.0
2015-Jul-26 23:33N 53°12' E 005°49'0 0.0
2015-Jul-26 22:34N 53°12' E 005°49'0 0.0
2015-Jul-26 21:33N 53°12' E 005°49'0 0.0
2015-Jul-26 20:32N 53°12' E 005°49'0 0.0
2015-Jul-26 19:32N 53°12' E 005°49'0 0.0
2015-Jul-26 18:32N 53°12' E 005°49'0 0.0
2015-Jul-26 17:32N 53°12' E 005°49'0 0.0
2015-Jul-26 16:33N 53°12' E 005°49'0 0.0
2015-Jul-26 15:33N 53°12' E 005°49'0 0.0
2015-Jul-26 14:33N 53°12' E 005°49'0 0.0
2015-Jul-26 13:34N 53°12' E 005°49'0 0.0
2015-Jul-26 12:33N 53°12' E 005°49'0 0.0
2015-Jul-26 11:34N 53°12' E 005°49'0 0.0
2015-Jul-26 10:33N 53°12' E 005°49'0 0.0
2015-Jul-26 09:33N 53°12' E 005°49'0 0.0
2015-Jul-26 08:33N 53°12' E 005°49'0 0.0
2015-Jul-26 07:34N 53°12' E 005°49'0 0.0
2015-Jul-26 06:34N 53°12' E 005°49'0 0.0
2015-Jul-26 05:33N 53°12' E 005°49'0 0.0
2015-Jul-26 04:33N 53°12' E 005°49'0 0.0
2015-Jul-26 03:32N 53°12' E 005°49'0 0.0
2015-Jul-26 02:33N 53°12' E 005°49'0 0.0
2015-Jul-26 01:34N 53°12' E 005°49'0 0.0
2015-Jul-26 00:33N 53°12' E 005°49'0 0.0
2015-Jul-25 23:33N 53°12' E 005°49'0 0.0
2015-Jul-25 22:33N 53°12' E 005°49'0 0.0
2015-Jul-25 21:34N 53°12' E 005°49'0 0.0
2015-Jul-25 20:31N 53°12' E 005°49'0 0.0
2015-Jul-25 19:33N 53°12' E 005°49'0 0.0
2015-Jul-25 18:33N 53°12' E 005°49'0 0.0
2015-Jul-25 17:33N 53°12' E 005°49'0 0.0
2015-Jul-25 16:33N 53°12' E 005°49'0 0.0
2015-Jul-25 15:33N 53°12' E 005°49'0 0.0
2015-Jul-25 14:33N 53°12' E 005°49'0 0.0
2015-Jul-25 13:32N 53°12' E 005°49'0 0.0
2015-Jul-25 12:34N 53°12' E 005°49'1 0.9
2015-Jul-25 11:32N 53°11' E 005°50'22 3.6
2015-Jul-25 05:31N 52°51' E 005°40'0 0.0
2015-Jul-25 04:28N 52°51' E 005°40'0 0.0
2015-Jul-25 03:33N 52°51' E 005°40'0 0.0
2015-Jul-25 02:29N 52°51' E 005°40'0 0.0
2015-Jul-25 01:15N 52°51' E 005°40'0 0.0
2015-Jul-24 23:29N 52°51' E 005°40'1 0.3
2015-Jul-24 21:23N 52°50' E 005°40'7 8.7
2015-Jul-24 20:34N 52°44' E 005°33'8 8.2
2015-Jul-24 19:33N 52°37' E 005°39'9 8.9
2015-Jul-24 18:33N 52°35' E 005°53'6 5.8
2015-Jul-24 17:33N 52°31' E 006°01'8 7.8
2015-Jul-24 16:34N 52°25' E 006°08'13 6.2
2015-Jul-24 14:29N 52°12' E 006°10'6 5.7
2015-Jul-24 13:29N 52°07' E 006°13'7 6.2
2015-Jul-24 12:20N 52°00' E 006°07'5 5.6
2015-Jul-24 11:25N 51°58' E 005°59'33 6.6
2015-Jul-24 06:20N 51°34' E 006°36'16 5.4
2015-Jul-24 03:21N 51°19' E 006°44'1 0.4
2015-Jul-24 01:28N 51°18' E 006°44'  
Track history (hours):
 
Tides and Currents Weather Stations Pressure Air Temp Water Temp Dewpoint Dewpoint Depression Visibility Wind Speed Wind Dir Waves Ship Positions

Audrey

Last reported at 2015-Aug-02 21:33 UTC. Time now 2015-Aug-02 22:32 UTC.
Position N 51°49' E 004°39'.

Length 85 m; draft 2.4 m.

Type: Other ship. MMSI: 244660106.

Date/timePositionNaut miles runAvg speedWind from/ knotsBaromVisibWave heightAir tempDewpointWater temp
2015-Aug-02 21:33N 51°49' E 004°39'0 0.0
2015-Aug-02 20:33N 51°49' E 004°39'0 0.0
2015-Aug-02 19:34N 51°49' E 004°39'0 0.0
2015-Aug-02 17:26N 51°49' E 004°39'0 0.0
2015-Aug-02 13:30N 51°49' E 004°39'0 0.0
2015-Aug-02 12:33N 51°49' E 004°39'0 0.0
2015-Aug-02 11:29N 51°49' E 004°39'0 0.0
2015-Aug-02 10:32N 51°49' E 004°39'0 0.0
2015-Aug-02 09:32N 51°49' E 004°39'0 0.0
2015-Aug-02 07:33N 51°49' E 004°39'0 0.0
2015-Aug-02 06:33N 51°49' E 004°39'0 0.0
2015-Aug-02 05:32N 51°49' E 004°39'0 0.0
2015-Aug-02 04:32N 51°49' E 004°39'0 0.0
2015-Aug-02 03:33N 51°49' E 004°39'0 0.0
2015-Aug-02 02:11N 51°49' E 004°39'0 0.0
2015-Aug-02 01:32N 51°49' E 004°39'0 0.0
2015-Aug-02 00:31N 51°49' E 004°39'0 0.0
2015-Aug-01 23:22N 51°49' E 004°39'0 0.0
2015-Aug-01 21:25N 51°49' E 004°39'0 0.0
2015-Aug-01 19:29N 51°49' E 004°39'0 0.0
2015-Aug-01 18:34N 51°49' E 004°39'0 0.0
2015-Aug-01 17:34N 51°49' E 004°39'0 0.0
2015-Aug-01 16:33N 51°49' E 004°39'0 0.0
2015-Aug-01 15:33N 51°49' E 004°39'0 0.0
2015-Aug-01 14:34N 51°49' E 004°39'0 0.0
2015-Aug-01 13:34N 51°49' E 004°39'0 0.0
2015-Aug-01 12:34N 51°49' E 004°39'0 0.0
2015-Aug-01 11:34N 51°49' E 004°39'0 0.0
2015-Aug-01 10:34N 51°49' E 004°39'0 0.0
2015-Aug-01 09:34N 51°49' E 004°39'0 0.0
2015-Aug-01 08:34N 51°49' E 004°39'0 0.0
2015-Aug-01 07:34N 51°49' E 004°39'0 0.0
2015-Aug-01 06:33N 51°49' E 004°39'0 0.0
2015-Aug-01 05:33N 51°49' E 004°39'0 0.0
2015-Aug-01 04:34N 51°49' E 004°39'0 0.0
2015-Aug-01 03:34N 51°49' E 004°39'0 0.0
2015-Aug-01 02:33N 51°49' E 004°39'0 0.0
2015-Aug-01 01:34N 51°49' E 004°39'0 0.0
2015-Aug-01 00:34N 51°49' E 004°39'0 0.0
2015-Jul-31 23:34N 51°49' E 004°39'0 0.0
2015-Jul-31 22:34N 51°49' E 004°39'0 0.0
2015-Jul-31 21:33N 51°49' E 004°39'0 0.0
2015-Jul-31 20:34N 51°49' E 004°39'0 0.0
2015-Jul-31 19:34N 51°49' E 004°39'0 0.0
2015-Jul-31 18:34N 51°49' E 004°39'0 0.0
2015-Jul-31 17:34N 51°49' E 004°39'0 0.0
2015-Jul-31 16:34N 51°49' E 004°39'0 0.0
2015-Jul-31 15:34N 51°49' E 004°39'0 0.0
2015-Jul-31 14:33N 51°49' E 004°39'0 0.0
2015-Jul-31 13:33N 51°49' E 004°39'0 0.0
2015-Jul-31 12:34N 51°49' E 004°39'0 0.0
2015-Jul-31 11:34N 51°49' E 004°39'0 0.0
2015-Jul-31 10:33N 51°49' E 004°39'0 0.0
2015-Jul-31 09:34N 51°49' E 004°39'0 0.1
2015-Jul-31 08:34N 51°49' E 004°39'5 4.8
2015-Jul-31 07:33N 51°53' E 004°37'9 8.7
2015-Jul-31 06:32N 51°56' E 004°51'7 7.5
2015-Jul-31 05:34N 51°58' E 005°02'4 4.2
2015-Jul-31 04:33N 52°01' E 005°07'0 0.0
2015-Jul-31 03:33N 52°01' E 005°07'0 0.0
2015-Jul-31 02:34N 52°01' E 005°07'0 0.0
2015-Jul-31 01:33N 52°01' E 005°07'0 0.0
2015-Jul-31 00:33N 52°01' E 005°07'0 0.0
2015-Jul-30 23:33N 52°01' E 005°07'0 0.0
2015-Jul-30 22:34N 52°01' E 005°07'0 0.0
2015-Jul-30 21:33N 52°01' E 005°07'0 0.0
2015-Jul-30 20:33N 52°01' E 005°07'1 1.4
2015-Jul-30 19:34N 52°03' E 005°06'9 8.6
2015-Jul-30 18:34N 52°10' E 004°60'9 9.2
2015-Jul-30 17:33N 52°19' E 005°01'4 3.9
2015-Jul-30 16:34N 52°23' E 004°58'8 8.2
2015-Jul-30 15:33N 52°26' E 005°10'9 9.2
2015-Jul-30 14:34N 52°30' E 005°24'7 6.9
2015-Jul-30 13:34N 52°36' E 005°30'9 9.4
2015-Jul-30 12:33N 52°45' E 005°34'7 7.2
2015-Jul-30 11:33N 52°51' E 005°41'1 1.0
2015-Jul-30 10:06N 52°52' E 005°41'11 2.4
2015-Jul-30 05:32N 53°03' E 005°47'0 0.0
2015-Jul-30 02:22N 53°03' E 005°47'0 0.0
2015-Jul-30 01:13N 53°03' E 005°47'0 0.0
2015-Jul-29 23:28N 53°03' E 005°47'9 1.1
2015-Jul-29 15:04N 53°12' E 005°49'0 0.1
2015-Jul-29 14:30N 53°12' E 005°49'0 0.0
2015-Jul-29 13:06N 53°12' E 005°49'0 0.0
2015-Jul-29 12:33N 53°12' E 005°49'0 0.0
2015-Jul-29 11:31N 53°12' E 005°49'0 0.0
2015-Jul-29 10:27N 53°12' E 005°49'0 0.0
2015-Jul-29 09:33N 53°12' E 005°49'0 0.0
2015-Jul-29 08:32N 53°12' E 005°49'0 0.0
2015-Jul-29 07:33N 53°12' E 005°49'0 0.0
2015-Jul-29 06:33N 53°12' E 005°49'0 0.0
2015-Jul-29 05:33N 53°12' E 005°49'0 0.0
2015-Jul-29 04:32N 53°12' E 005°49'0 0.0
2015-Jul-29 03:32N 53°12' E 005°49'0 0.0
2015-Jul-29 02:33N 53°12' E 005°49'0 0.0
2015-Jul-29 01:33N 53°12' E 005°49'0 0.0
2015-Jul-29 00:32N 53°12' E 005°49'0 0.0
2015-Jul-28 23:33N 53°12' E 005°49'0 0.0
2015-Jul-28 22:33N 53°12' E 005°49'0 0.0
2015-Jul-28 21:33N 53°12' E 005°49'0 0.0
2015-Jul-28 20:31N 53°12' E 005°49'0 0.0
2015-Jul-28 19:32N 53°12' E 005°49'0 0.0
2015-Jul-28 18:33N 53°12' E 005°49'0 0.0
2015-Jul-28 17:33N 53°12' E 005°49'0 0.0
2015-Jul-28 16:32N 53°12' E 005°49'0 0.0
2015-Jul-28 15:31N 53°12' E 005°49'0 0.0
2015-Jul-28 14:34N 53°12' E 005°49'0 0.0
2015-Jul-28 13:32N 53°12' E 005°49'0 0.0
2015-Jul-28 12:34N 53°12' E 005°49'0 0.0
2015-Jul-28 11:33N 53°12' E 005°49'0 0.0
2015-Jul-28 10:33N 53°12' E 005°49'0 0.0
2015-Jul-28 09:34N 53°12' E 005°49'0 0.0
2015-Jul-28 08:33N 53°12' E 005°49'0 0.0
2015-Jul-28 07:33N 53°12' E 005°49'0 0.0
2015-Jul-28 06:33N 53°12' E 005°49'0 0.0
2015-Jul-28 05:31N 53°12' E 005°49'0 0.0
2015-Jul-28 04:33N 53°12' E 005°49'0 0.0
2015-Jul-28 03:33N 53°12' E 005°49'0 0.0
2015-Jul-28 02:34N 53°12' E 005°49'0 0.0
2015-Jul-28 01:33N 53°12' E 005°49'0 0.0
2015-Jul-28 00:34N 53°12' E 005°49'0 0.0
2015-Jul-27 23:33N 53°12' E 005°49'0 0.0
2015-Jul-27 22:33N 53°12' E 005°49'0 0.0
2015-Jul-27 21:32N 53°12' E 005°49'0 0.0
2015-Jul-27 20:33N 53°12' E 005°49'0 0.0
2015-Jul-27 19:33N 53°12' E 005°49'0 0.0
2015-Jul-27 18:33N 53°12' E 005°49'0 0.0
2015-Jul-27 17:34N 53°12' E 005°49'0 0.0
2015-Jul-27 16:33N 53°12' E 005°49'0 0.0
2015-Jul-27 15:33N 53°12' E 005°49'0 0.0
2015-Jul-27 14:33N 53°12' E 005°49'0 0.0
2015-Jul-27 13:33N 53°12' E 005°49'0 0.0
2015-Jul-27 12:33N 53°12' E 005°49'0 0.0
2015-Jul-27 11:33N 53°12' E 005°49'0 0.0
2015-Jul-27 10:33N 53°12' E 005°49'0 0.0
2015-Jul-27 09:30N 53°12' E 005°49'0 0.0
2015-Jul-27 08:32N 53°12' E 005°49'0 0.0
2015-Jul-27 07:32N 53°12' E 005°49'0 0.0
2015-Jul-27 06:33N 53°12' E 005°49'0 0.0
2015-Jul-27 05:33N 53°12' E 005°49'0 0.0
2015-Jul-27 04:32N 53°12' E 005°49'0 0.0
2015-Jul-27 03:32N 53°12' E 005°49'0 0.0
2015-Jul-27 02:33N 53°12' E 005°49'0 0.0
2015-Jul-27 01:34N 53°12' E 005°49'0 0.0
2015-Jul-27 00:33N 53°12' E 005°49'0 0.0
2015-Jul-26 23:33N 53°12' E 005°49'0 0.0
2015-Jul-26 22:34N 53°12' E 005°49'0 0.0
2015-Jul-26 21:33N 53°12' E 005°49'0 0.0
2015-Jul-26 20:32N 53°12' E 005°49'0 0.0
2015-Jul-26 19:32N 53°12' E 005°49'0 0.0
2015-Jul-26 18:32N 53°12' E 005°49'0 0.0
2015-Jul-26 17:32N 53°12' E 005°49'0 0.0
2015-Jul-26 16:33N 53°12' E 005°49'0 0.0
2015-Jul-26 15:33N 53°12' E 005°49'0 0.0
2015-Jul-26 14:33N 53°12' E 005°49'0 0.0
2015-Jul-26 13:34N 53°12' E 005°49'0 0.0
2015-Jul-26 12:33N 53°12' E 005°49'0 0.0
2015-Jul-26 11:34N 53°12' E 005°49'0 0.0
2015-Jul-26 10:33N 53°12' E 005°49'0 0.0
2015-Jul-26 09:33N 53°12' E 005°49'0 0.0
2015-Jul-26 08:33N 53°12' E 005°49'0 0.0
2015-Jul-26 07:34N 53°12' E 005°49'0 0.0
2015-Jul-26 06:34N 53°12' E 005°49'0 0.0
2015-Jul-26 05:33N 53°12' E 005°49'0 0.0
2015-Jul-26 04:33N 53°12' E 005°49'0 0.0
2015-Jul-26 03:32N 53°12' E 005°49'0 0.0
2015-Jul-26 02:33N 53°12' E 005°49'0 0.0
2015-Jul-26 01:34N 53°12' E 005°49'0 0.0
2015-Jul-26 00:33N 53°12' E 005°49'0 0.0
2015-Jul-25 23:33N 53°12' E 005°49'0 0.0
2015-Jul-25 22:33N 53°12' E 005°49'0 0.0
2015-Jul-25 21:34N 53°12' E 005°49'0 0.0
2015-Jul-25 20:31N 53°12' E 005°49'0 0.0
2015-Jul-25 19:33N 53°12' E 005°49'0 0.0
2015-Jul-25 18:33N 53°12' E 005°49'0 0.0
2015-Jul-25 17:33N 53°12' E 005°49'0 0.0
2015-Jul-25 16:33N 53°12' E 005°49'0 0.0
2015-Jul-25 15:33N 53°12' E 005°49'0 0.0
2015-Jul-25 14:33N 53°12' E 005°49'0 0.0
2015-Jul-25 13:32N 53°12' E 005°49'0 0.0
2015-Jul-25 12:34N 53°12' E 005°49'1 0.9
2015-Jul-25 11:32N 53°11' E 005°50'22 3.6
2015-Jul-25 05:31N 52°51' E 005°40'0 0.0
2015-Jul-25 04:28N 52°51' E 005°40'0 0.0
2015-Jul-25 03:33N 52°51' E 005°40'0 0.0
2015-Jul-25 02:29N 52°51' E 005°40'0 0.0
2015-Jul-25 01:15N 52°51' E 005°40'0 0.0
2015-Jul-24 23:29N 52°51' E 005°40'1 0.3
2015-Jul-24 21:23N 52°50' E 005°40'7 8.7
2015-Jul-24 20:34N 52°44' E 005°33'8 8.2
2015-Jul-24 19:33N 52°37' E 005°39'9 8.9
2015-Jul-24 18:33N 52°35' E 005°53'6 5.8
2015-Jul-24 17:33N 52°31' E 006°01'8 7.8
2015-Jul-24 16:34N 52°25' E 006°08'13 6.2
2015-Jul-24 14:29N 52°12' E 006°10'6 5.7
2015-Jul-24 13:29N 52°07' E 006°13'7 6.2
2015-Jul-24 12:20N 52°00' E 006°07'5 5.6
2015-Jul-24 11:25N 51°58' E 005°59'33 6.6
2015-Jul-24 06:20N 51°34' E 006°36'16 5.4
2015-Jul-24 03:21N 51°19' E 006°44'1 0.4
2015-Jul-24 01:28N 51°18' E 006°44'  

Dump ship's entire track history